createdAt,value
2018-10-03T00:00:16.404Z,12.50
2018-10-03T00:02:19.600Z,17.50
2018-10-03T00:04:23.196Z,16.53
2018-10-03T00:06:26.723Z,19.02
2018-10-03T00:08:30.463Z,14.73
2018-10-03T00:10:34.005Z,17.00
2018-10-03T00:12:37.380Z,10.53
2018-10-03T00:14:40.692Z,16.93
2018-10-03T00:16:44.392Z,10.50
2018-10-03T00:18:47.585Z,9.00
2018-10-03T00:20:50.780Z,14.35
2018-10-03T00:22:54.023Z,11.10
2018-10-03T00:24:57.272Z,22.13
2018-10-03T00:27:00.732Z,13.90
2018-10-03T00:29:04.649Z,7.08
2018-10-03T00:31:08.125Z,9.60
2018-10-03T00:33:11.592Z,10.25
2018-10-03T00:35:15.120Z,10.23
2018-10-03T00:37:18.628Z,12.30
2018-10-03T00:39:22.404Z,12.18
2018-10-03T00:41:25.933Z,13.03
2018-10-03T00:43:29.296Z,10.58
2018-10-03T00:45:32.577Z,14.93
2018-10-03T00:47:36.213Z,10.40
2018-10-03T00:49:39.700Z,11.85
2018-10-03T00:51:43.232Z,10.18
2018-10-03T00:53:46.717Z,11.75
2018-10-03T00:55:50.187Z,12.90
2018-10-03T00:57:53.541Z,11.60
2018-10-03T00:59:57.508Z,14.75
2018-10-03T01:02:00.715Z,14.40
2018-10-03T01:04:04.192Z,14.35
2018-10-03T01:06:07.993Z,14.45
2018-10-03T01:08:11.527Z,16.95
2018-10-03T01:10:14.952Z,6.22
2018-10-03T01:12:18.158Z,13.70
2018-10-03T01:14:21.873Z,14.65
2018-10-03T01:16:25.745Z,13.00
2018-10-03T01:18:29.717Z,14.78
2018-10-03T01:20:33.180Z,15.60
2018-10-03T01:22:36.999Z,10.68
2018-10-03T01:24:40.841Z,17.73
2018-10-03T01:26:44.037Z,16.10
2018-10-03T01:28:47.703Z,22.62
2018-10-03T01:30:51.356Z,19.57
2018-10-03T01:32:54.545Z,16.00
2018-10-03T01:34:58.048Z,12.53
2018-10-03T01:37:01.706Z,19.55
2018-10-03T01:39:07.458Z,17.93
2018-10-03T01:41:11.148Z,15.30
2018-10-03T01:43:14.647Z,15.80
2018-10-03T01:45:18.262Z,18.62
2018-10-03T01:47:21.468Z,21.80
2018-10-03T01:49:24.648Z,21.70
2018-10-03T01:51:28.444Z,17.17
2018-10-03T01:53:35.840Z,20.25
2018-10-03T01:55:39.596Z,19.75
2018-10-03T01:57:43.104Z,12.00
2018-10-03T01:59:46.319Z,18.73
2018-10-03T02:01:49.560Z,11.50
2018-10-03T02:03:53.488Z,10.20
2018-10-03T02:05:57.320Z,20.83
2018-10-03T02:08:00.772Z,8.65
2018-10-03T02:10:03.988Z,19.92
2018-10-03T02:12:07.549Z,17.48
2018-10-03T02:14:11.029Z,15.80
2018-10-03T02:16:14.522Z,14.58
2018-10-03T02:18:17.709Z,23.20
2018-10-03T02:20:20.897Z,15.47
2018-10-03T02:22:24.115Z,15.23
2018-10-03T02:24:27.601Z,19.02
2018-10-03T02:26:31.057Z,15.93
2018-10-03T02:28:34.584Z,19.15
2018-10-03T02:30:38.066Z,18.05
2018-10-03T02:32:41.730Z,13.08
2018-10-03T02:34:45.442Z,19.65
2018-10-03T02:36:48.896Z,20.55
2018-10-03T02:38:52.444Z,18.73
2018-10-03T02:40:56.213Z,17.25
2018-10-03T02:43:00.004Z,14.35
2018-10-03T02:45:03.504Z,17.67
2018-10-03T02:47:07.241Z,18.90
2018-10-03T02:49:10.756Z,17.92
2018-10-03T02:51:14.559Z,18.32
2018-10-03T02:53:17.985Z,18.00
2018-10-03T02:55:21.207Z,13.53
2018-10-03T02:57:24.477Z,15.90
2018-10-03T02:59:28.507Z,24.52
2018-10-03T03:01:31.764Z,17.50
2018-10-03T03:03:35.373Z,15.63
2018-10-03T03:05:39.077Z,19.95
2018-10-03T03:07:42.859Z,12.28
2018-10-03T03:09:46.084Z,16.95
2018-10-03T03:11:49.302Z,11.90
2018-10-03T03:13:53.101Z,10.90
2018-10-03T03:15:56.573Z,14.70
2018-10-03T03:18:00.352Z,12.50
2018-10-03T03:20:04.034Z,11.70
2018-10-03T03:22:07.297Z,13.40
2018-10-03T03:24:10.844Z,12.10
2018-10-03T03:26:15.034Z,8.18
2018-10-03T03:28:18.852Z,8.23
2018-10-03T03:30:22.349Z,9.03
2018-10-03T03:32:27.073Z,15.63
2018-10-03T03:34:30.268Z,12.83
2018-10-03T03:36:33.988Z,17.15
2018-10-03T03:38:37.483Z,11.60
2018-10-03T03:40:40.664Z,10.50
2018-10-03T03:42:43.888Z,16.63
2018-10-03T03:44:47.346Z,19.33
2018-10-03T03:46:50.835Z,20.23
2018-10-03T03:48:54.301Z,14.00
2018-10-03T03:50:57.598Z,20.23
2018-10-03T03:53:01.237Z,12.20
2018-10-03T03:55:04.791Z,17.92
2018-10-03T03:57:07.996Z,14.30
2018-10-03T03:59:11.200Z,10.00
2018-10-03T04:01:14.781Z,18.70
2018-10-03T04:03:18.277Z,12.40
2018-10-03T04:05:21.515Z,14.10
2018-10-03T04:07:24.700Z,17.47
2018-10-03T04:09:28.194Z,17.63
2018-10-03T04:11:31.663Z,21.37
2018-10-03T04:13:35.120Z,18.62
2018-10-03T04:15:38.414Z,16.57
2018-10-03T04:17:42.084Z,14.68
2018-10-03T04:19:45.548Z,17.45
2018-10-03T04:21:49.160Z,17.92
2018-10-03T04:23:52.684Z,13.48
2018-10-03T04:26:02.926Z,17.65
2018-10-03T04:28:07.052Z,18.75
2018-10-03T04:30:10.520Z,14.98
2018-10-03T04:32:13.715Z,21.90
2018-10-03T04:34:16.936Z,15.33
2018-10-03T04:36:20.131Z,16.90
2018-10-03T04:38:23.362Z,14.83
2018-10-03T04:40:27.100Z,13.53
2018-10-03T04:42:30.585Z,12.18
2018-10-03T04:44:33.835Z,17.40
2018-10-03T04:46:37.052Z,23.27
2018-10-03T04:48:40.546Z,15.35
2018-10-03T04:50:44.004Z,19.52
2018-10-03T04:52:48.055Z,18.55
2018-10-03T04:54:52.093Z,15.67
2018-10-03T04:56:55.541Z,12.70
2018-10-03T04:58:59.009Z,11.20
2018-10-03T05:01:02.217Z,20.40
2018-10-03T05:03:06.055Z,14.93
2018-10-03T05:05:09.738Z,16.47
2018-10-03T05:07:13.237Z,14.40
2018-10-03T05:09:16.743Z,12.98
2018-10-03T05:11:20.808Z,22.60
2018-10-03T05:13:24.374Z,22.10
2018-10-03T05:15:27.853Z,13.18
2018-10-03T05:17:31.352Z,15.55
2018-10-03T05:19:34.903Z,27.70
2018-10-03T05:21:38.786Z,23.35
2018-10-03T05:23:42.006Z,20.73
2018-10-03T05:25:45.197Z,19.73
2018-10-03T05:27:48.402Z,16.57
2018-10-03T05:29:52.392Z,19.25
2018-10-03T05:31:55.580Z,13.00
2018-10-03T05:33:58.853Z,20.60
2018-10-03T05:36:02.400Z,18.80
2018-10-03T05:38:05.948Z,19.82
2018-10-03T05:40:09.155Z,17.35
2018-10-03T05:42:12.582Z,11.05
2018-10-03T05:44:16.040Z,15.48
2018-10-03T05:46:19.745Z,21.57
2018-10-03T05:48:23.492Z,12.68
2018-10-03T05:50:27.469Z,17.65
2018-10-03T05:52:31.138Z,16.35
2018-10-03T05:54:34.345Z,17.50
2018-10-03T05:56:37.812Z,21.10
2018-10-03T05:58:41.288Z,18.75
2018-10-03T06:00:44.962Z,15.00
2018-10-03T06:02:48.561Z,17.90
2018-10-03T06:04:52.320Z,11.73
2018-10-03T06:06:55.607Z,12.33
2018-10-03T06:08:59.114Z,18.17
2018-10-03T06:11:03.268Z,13.22
2018-10-03T06:13:07.004Z,17.40
2018-10-03T06:15:10.566Z,14.45
2018-10-03T06:17:14.401Z,13.55
2018-10-03T06:19:17.612Z,14.37
2018-10-03T06:21:21.160Z,13.73
2018-10-03T06:23:26.325Z,13.20
2018-10-03T06:25:36.208Z,11.80
2018-10-03T06:27:39.455Z,10.57
2018-10-03T06:29:43.456Z,16.90
2018-10-03T06:31:47.140Z,13.50
2018-10-03T06:33:50.630Z,18.37
2018-10-03T06:35:54.351Z,14.13
2018-10-03T06:37:57.856Z,19.10
2018-10-03T06:40:01.401Z,10.55
2018-10-03T06:42:04.732Z,14.13
2018-10-03T06:44:08.369Z,15.72
2018-10-03T06:46:11.940Z,11.03
2018-10-03T06:48:15.428Z,7.35
2018-10-03T06:50:18.907Z,15.63
2018-10-03T06:52:22.400Z,15.30
2018-10-03T06:54:25.648Z,16.10
2018-10-03T06:56:29.326Z,11.25
2018-10-03T06:58:32.706Z,9.58
2018-10-03T07:00:36.096Z,9.63
2018-10-03T07:02:39.312Z,11.20
2018-10-03T07:04:42.780Z,19.00
2018-10-03T07:06:47.072Z,6.65
2018-10-03T07:08:50.528Z,13.45
2018-10-03T07:10:54.033Z,8.85
2018-10-03T07:12:57.765Z,9.35
2018-10-03T07:15:01.104Z,11.53
2018-10-03T07:17:04.294Z,15.83
2018-10-03T07:19:07.828Z,7.60
2018-10-03T07:21:11.316Z,12.18
2018-10-03T07:23:14.759Z,9.73
2018-10-03T07:25:18.313Z,15.88
2018-10-03T07:27:21.818Z,7.40
2018-10-03T07:29:25.433Z,6.35
2018-10-03T07:31:29.337Z,19.23
2018-10-03T07:33:32.805Z,8.28
2018-10-03T07:35:36.010Z,8.93
2018-10-03T07:37:40.317Z,13.28
2018-10-03T07:39:43.812Z,14.87
2018-10-03T07:41:47.344Z,13.32
2018-10-03T07:43:50.572Z,5.30
2018-10-03T07:45:53.766Z,9.90
2018-10-03T07:47:56.965Z,11.43
2018-10-03T07:50:00.760Z,10.90
2018-10-03T07:52:04.212Z,11.68
2018-10-03T07:54:07.672Z,8.63
2018-10-03T07:56:12.075Z,14.07
2018-10-03T07:58:15.719Z,8.63
2018-10-03T08:00:26.313Z,9.23
2018-10-03T08:02:29.616Z,6.63
2018-10-03T08:04:33.076Z,7.75
2018-10-03T08:06:36.533Z,12.07
2018-10-03T08:08:40.324Z,14.45
2018-10-03T08:10:44.195Z,11.30
2018-10-03T08:12:47.372Z,11.20
2018-10-03T08:14:50.815Z,8.33
2018-10-03T08:16:54.465Z,4.60
2018-10-03T08:18:57.930Z,10.70
2018-10-03T08:21:01.603Z,8.00
2018-10-03T08:23:05.432Z,9.35
2018-10-03T08:25:08.972Z,9.10
2018-10-03T08:27:12.474Z,11.68
2018-10-03T08:29:16.158Z,11.53
2018-10-03T08:31:19.658Z,7.75
2018-10-03T08:33:23.390Z,6.97
2018-10-03T08:35:27.140Z,9.55
2018-10-03T08:37:30.672Z,10.88
2018-10-03T08:39:33.888Z,7.65
2018-10-03T08:41:37.156Z,9.95
2018-10-03T08:43:40.360Z,16.63
2018-10-03T08:45:44.167Z,11.60
2018-10-03T08:47:47.612Z,7.85
2018-10-03T08:49:51.069Z,3.60
2018-10-03T08:51:54.780Z,5.63
2018-10-03T08:53:58.413Z,11.43
2018-10-03T08:56:01.742Z,5.60
2018-10-03T08:58:04.969Z,10.07
2018-10-03T09:00:09.136Z,8.98
2018-10-03T09:02:13.048Z,6.77
2018-10-03T09:04:16.851Z,11.73
2018-10-03T09:06:20.572Z,11.75
2018-10-03T09:08:23.752Z,8.48
2018-10-03T09:10:27.307Z,9.25
2018-10-03T09:12:30.896Z,4.80
2018-10-03T09:14:34.690Z,10.20
2018-10-03T09:16:38.410Z,10.25
2018-10-03T09:18:41.870Z,6.37
2018-10-03T09:20:45.480Z,9.78
2018-10-03T09:22:48.993Z,10.35
2018-10-03T09:24:52.488Z,5.35
2018-10-03T09:26:56.004Z,7.37
2018-10-03T09:28:59.693Z,4.10
2018-10-03T09:31:03.200Z,5.55
2018-10-03T09:33:06.404Z,4.30
2018-10-03T09:35:09.630Z,8.90
2018-10-03T09:37:12.828Z,6.80
2018-10-03T09:39:16.041Z,8.63
2018-10-03T09:41:19.292Z,6.58
2018-10-03T09:43:22.484Z,5.70
2018-10-03T09:45:26.161Z,7.70
2018-10-03T09:47:29.804Z,5.95
2018-10-03T09:49:32.996Z,5.90
2018-10-03T09:51:36.452Z,5.78
2018-10-03T09:53:39.657Z,6.43
2018-10-03T09:55:42.861Z,6.00
2018-10-03T09:57:46.521Z,7.72
2018-10-03T09:59:49.976Z,4.40
2018-10-03T10:01:53.426Z,11.00
2018-10-03T10:03:56.984Z,8.60
2018-10-03T10:06:00.644Z,7.58
2018-10-03T10:08:04.128Z,8.23
2018-10-03T10:10:07.376Z,11.53
2018-10-03T10:12:11.052Z,8.75
2018-10-03T10:14:14.761Z,4.75
2018-10-03T10:16:18.573Z,7.20
2018-10-03T10:18:22.433Z,9.10
2018-10-03T10:20:25.928Z,5.30
2018-10-03T10:22:29.500Z,7.42
2018-10-03T10:26:42.759Z,5.42
2018-10-03T10:28:46.236Z,9.78
2018-10-03T10:30:49.449Z,8.40
2018-10-03T10:32:52.724Z,6.53
2018-10-03T10:34:56.320Z,9.53
2018-10-03T10:36:59.780Z,9.43
2018-10-03T10:39:03.520Z,9.48
2018-10-03T10:41:07.068Z,5.10
2018-10-03T10:43:10.703Z,5.22
2018-10-03T10:45:14.532Z,8.50
2018-10-03T10:47:18.077Z,5.40
2018-10-03T10:49:21.317Z,7.63
2018-10-03T10:51:24.590Z,9.93
2018-10-03T10:53:27.756Z,4.77
2018-10-03T10:55:30.965Z,4.43
2018-10-03T10:57:34.211Z,10.03
2018-10-03T10:59:37.440Z,2.60
2018-10-03T11:01:41.532Z,6.62
2018-10-03T11:03:45.050Z,7.67
2018-10-03T11:05:48.838Z,9.98
2018-10-03T11:07:52.496Z,5.65
2018-10-03T11:09:55.988Z,5.42
2018-10-03T11:11:59.449Z,4.17
2018-10-03T11:14:02.973Z,5.22
2018-10-03T11:16:06.640Z,6.20
2018-10-03T11:18:10.132Z,5.25
2018-10-03T11:20:13.374Z,7.00
2018-10-03T11:22:17.052Z,7.45
2018-10-03T11:24:20.659Z,3.60
2018-10-03T11:26:23.991Z,3.37
2018-10-03T11:28:27.541Z,4.00
2018-10-03T11:30:30.712Z,4.03
2018-10-03T11:32:33.900Z,3.47
2018-10-03T11:34:37.468Z,5.43
2018-10-03T11:36:40.647Z,12.37
2018-10-03T11:38:43.976Z,3.87
2018-10-03T11:40:47.188Z,1.97
2018-10-03T11:42:50.402Z,10.17
2018-10-03T11:44:53.596Z,3.17
2018-10-03T11:46:56.792Z,9.03
2018-10-03T11:49:00.174Z,4.70
2018-10-03T11:51:03.908Z,3.37
2018-10-03T11:53:07.318Z,7.73
2018-10-03T11:55:10.710Z,4.93
2018-10-03T11:57:14.897Z,2.62
2018-10-03T11:59:18.157Z,4.83
2018-10-03T12:01:21.776Z,4.22
2018-10-03T12:03:25.489Z,2.60
2018-10-03T12:05:29.035Z,4.20
2018-10-03T12:07:32.560Z,4.92
2018-10-03T12:09:36.192Z,5.80
2018-10-03T12:11:39.916Z,7.00
2018-10-03T12:13:43.519Z,5.25
2018-10-03T12:15:49.177Z,6.37
2018-10-03T12:17:52.637Z,8.03
2018-10-03T12:19:55.812Z,3.60
2018-10-03T12:21:59.848Z,3.87
2018-10-03T12:24:03.312Z,7.17
2018-10-03T12:26:06.895Z,11.00
2018-10-03T12:28:10.184Z,7.63
2018-10-03T12:30:13.348Z,5.23
2018-10-03T12:32:17.656Z,6.73
2018-10-03T12:34:20.858Z,3.67
2018-10-03T12:36:24.072Z,7.83
2018-10-03T12:38:27.246Z,5.23
2018-10-03T12:40:31.293Z,7.10
2018-10-03T12:42:34.485Z,8.13
2018-10-03T12:44:37.704Z,7.13
2018-10-03T12:46:40.895Z,7.07
2018-10-03T12:48:44.139Z,7.73
2018-10-03T12:50:47.574Z,4.80
2018-10-03T12:52:50.800Z,5.90
2018-10-03T12:54:54.066Z,14.03
2018-10-03T12:56:57.677Z,4.53
2018-10-03T12:59:01.308Z,1.33
2018-10-03T13:01:04.568Z,2.03
2018-10-03T13:03:08.328Z,5.83
2018-10-03T13:05:11.548Z,6.57
2018-10-03T13:07:14.737Z,2.90
2018-10-03T13:09:18.132Z,3.80
2018-10-03T13:11:21.860Z,2.47
2018-10-03T13:13:25.229Z,1.77
2018-10-03T13:15:28.996Z,3.13
2018-10-03T13:17:32.513Z,3.20
2018-10-03T13:19:35.889Z,2.60
2018-10-03T13:21:39.721Z,2.53
2018-10-03T13:23:42.928Z,3.67
2018-10-03T13:25:46.116Z,3.57
2018-10-03T13:27:49.355Z,7.37
2018-10-03T13:29:52.513Z,4.87
2018-10-03T13:31:55.731Z,5.53
2018-10-03T13:33:59.075Z,3.50
2018-10-03T13:36:02.273Z,2.20
2018-10-03T13:38:06.130Z,4.00
2018-10-03T13:40:09.666Z,4.83
2018-10-03T13:42:13.040Z,3.87
2018-10-03T13:44:16.200Z,2.10
2018-10-03T13:46:19.402Z,4.63
2018-10-03T13:48:22.574Z,6.50
2018-10-03T13:50:25.752Z,4.97
2018-10-03T13:52:28.941Z,7.63
2018-10-03T13:54:32.128Z,4.70
2018-10-03T13:56:35.572Z,7.20
2018-10-03T13:58:39.153Z,4.50
2018-10-03T14:00:42.341Z,3.33
2018-10-03T14:02:45.556Z,2.80
2018-10-03T14:04:49.419Z,3.43
2018-10-03T14:06:52.864Z,5.20
2018-10-03T14:08:56.129Z,3.97
2018-10-03T14:10:59.737Z,5.10
2018-10-03T14:13:03.375Z,3.13
2018-10-03T14:17:09.108Z,5.63
2018-10-03T14:19:12.888Z,4.20
2018-10-03T14:21:16.431Z,5.37
2018-10-03T14:23:20.056Z,2.07
2018-10-03T14:25:23.260Z,4.77
2018-10-03T14:27:26.444Z,6.03
2018-10-03T14:29:30.058Z,4.97
2018-10-03T14:31:34.188Z,6.30
2018-10-03T14:33:37.701Z,6.57
2018-10-03T14:35:40.884Z,7.60
2018-10-03T14:37:44.073Z,10.13
2018-10-03T14:39:47.488Z,5.50
2018-10-03T14:41:50.829Z,6.17
2018-10-03T14:43:54.014Z,8.33
2018-10-03T14:45:57.224Z,7.20
2018-10-03T14:48:00.391Z,4.57
2018-10-03T14:50:04.271Z,5.27
2018-10-03T14:52:08.223Z,8.23
2018-10-03T14:54:12.099Z,9.33
2018-10-03T14:56:15.273Z,6.47
2018-10-03T14:58:18.504Z,7.10
2018-10-03T15:00:22.200Z,3.40
2018-10-03T15:02:25.405Z,4.40
2018-10-03T15:04:28.572Z,3.60
2018-10-03T15:06:31.759Z,1.23
2018-10-03T15:08:35.173Z,1.30
2018-10-03T15:10:38.644Z,8.10
2018-10-03T15:12:42.015Z,2.20
2018-10-03T15:14:45.416Z,3.20
2018-10-03T15:16:48.696Z,7.63
2018-10-03T15:18:51.864Z,2.07
2018-10-03T15:20:55.474Z,5.57
2018-10-03T15:22:58.727Z,2.50
2018-10-03T15:25:02.207Z,11.43
2018-10-03T15:27:05.858Z,2.23
2018-10-03T15:29:09.074Z,13.20
2018-10-03T15:31:12.260Z,6.50
2018-10-03T15:33:15.456Z,5.27
2018-10-03T15:35:18.645Z,4.33
2018-10-03T15:37:22.123Z,6.10
2018-10-03T15:39:25.314Z,4.17
2018-10-03T15:41:29.842Z,3.53
2018-10-03T15:43:33.057Z,4.60
2018-10-03T15:45:36.229Z,3.00
2018-10-03T15:47:39.689Z,8.07
2018-10-03T15:49:43.217Z,5.17
2018-10-03T15:51:47.054Z,5.23
2018-10-03T15:53:50.230Z,5.70
2018-10-03T15:55:53.439Z,4.27
2018-10-03T15:57:57.228Z,7.93
2018-10-03T16:00:00.408Z,7.27
2018-10-03T16:02:03.802Z,8.17
2018-10-03T16:04:08.113Z,6.53
2018-10-03T16:06:11.371Z,2.60
2018-10-03T16:08:14.552Z,4.70
2018-10-03T16:10:17.750Z,2.73
2018-10-03T16:12:20.932Z,6.80
2018-10-03T16:14:24.120Z,3.50
2018-10-03T16:16:27.557Z,6.20
2018-10-03T16:18:30.812Z,3.90
2018-10-03T16:20:34.384Z,11.07
2018-10-03T16:22:37.736Z,6.10
2018-10-03T16:24:40.900Z,9.57
2018-10-03T16:26:44.143Z,5.73
2018-10-03T16:28:47.480Z,4.23
2018-10-03T16:30:50.681Z,4.33
2018-10-03T16:32:54.116Z,7.20
2018-10-03T16:34:57.320Z,6.00
2018-10-03T16:37:00.541Z,6.40
2018-10-03T16:39:05.325Z,8.50
2018-10-03T16:41:09.079Z,4.83
2018-10-03T16:43:12.237Z,2.20
2018-10-03T16:45:15.752Z,6.80
2018-10-03T16:47:19.385Z,1.67
2018-10-03T16:49:22.565Z,4.10
2018-10-03T16:51:26.180Z,7.33
2018-10-03T16:53:29.387Z,1.60
2018-10-03T16:55:32.584Z,2.70
2018-10-03T16:57:35.895Z,6.93
2018-10-03T16:59:39.416Z,3.23
2018-10-03T17:01:42.597Z,3.37
2018-10-03T17:03:45.921Z,2.90
2018-10-03T17:05:49.800Z,8.60
2018-10-03T17:07:53.172Z,4.77
2018-10-03T17:09:56.346Z,8.77
2018-10-03T17:11:59.553Z,7.77
2018-10-03T17:14:27.506Z,6.07
2018-10-03T17:16:30.696Z,5.83
2018-10-03T17:18:33.883Z,10.53
2018-10-03T17:20:37.076Z,6.37
2018-10-03T17:22:40.793Z,12.23
2018-10-03T17:24:44.180Z,3.60
2018-10-03T17:26:47.427Z,9.63
2018-10-03T17:28:50.648Z,4.73
2018-10-03T17:30:53.852Z,5.50
2018-10-03T17:32:57.384Z,4.53
2018-10-03T17:35:00.584Z,5.73
2018-10-03T17:37:03.980Z,6.43
2018-10-03T17:39:07.990Z,3.93
2018-10-03T17:41:11.199Z,10.30
2018-10-03T17:43:14.368Z,7.47
2018-10-03T17:45:17.732Z,5.40
2018-10-03T17:47:20.961Z,5.33
2018-10-03T17:49:24.523Z,8.43
2018-10-03T17:51:27.751Z,6.27
2018-10-03T17:53:30.978Z,3.87
2018-10-03T17:55:34.189Z,6.73
2018-10-03T17:57:37.420Z,5.43
2018-10-03T17:59:40.911Z,12.13
2018-10-03T18:01:49.292Z,3.00
2018-10-03T18:03:52.488Z,4.23
2018-10-03T18:05:55.712Z,6.70
2018-10-03T18:07:58.889Z,10.23
2018-10-03T18:10:02.239Z,5.50
2018-10-03T18:12:05.876Z,5.83
2018-10-03T18:14:09.078Z,6.87
2018-10-03T18:16:12.320Z,6.10
2018-10-03T18:18:15.518Z,2.60
2018-10-03T18:20:18.700Z,2.97
2018-10-03T18:22:21.905Z,1.70
2018-10-03T18:24:25.119Z,6.43
2018-10-03T18:26:28.304Z,5.40
2018-10-03T18:28:32.065Z,6.03
2018-10-03T18:30:35.315Z,6.07
2018-10-03T18:32:38.507Z,11.20
2018-10-03T18:34:42.045Z,5.70
2018-10-03T18:36:45.582Z,8.67
2018-10-03T18:38:49.198Z,6.00
2018-10-03T18:40:52.708Z,5.20
2018-10-03T18:42:55.894Z,4.50
2018-10-03T18:44:59.173Z,6.90
2018-10-03T18:47:02.558Z,6.03
2018-10-03T18:49:06.348Z,9.30
2018-10-03T18:51:09.788Z,6.90
2018-10-03T18:53:12.969Z,7.70
2018-10-03T18:55:16.454Z,3.07
2018-10-03T18:57:19.685Z,2.67
2018-10-03T18:59:23.013Z,5.23
2018-10-03T19:01:26.224Z,5.37
2018-10-03T19:03:29.409Z,7.20
2018-10-03T19:05:32.659Z,5.90
2018-10-03T19:07:36.240Z,13.93
2018-10-03T19:09:39.521Z,8.00
2018-10-03T19:11:42.713Z,4.93
2018-10-03T19:13:46.248Z,11.83
2018-10-03T19:15:49.686Z,13.53
2018-10-03T19:17:52.909Z,2.80
2018-10-03T19:19:56.174Z,8.40
2018-10-03T19:21:59.535Z,4.27
2018-10-03T19:24:02.762Z,13.27
2018-10-03T19:26:05.963Z,7.77
2018-10-03T19:28:09.471Z,6.33
2018-10-03T19:30:12.704Z,7.20
2018-10-03T19:32:15.881Z,7.37
2018-10-03T19:34:19.124Z,7.60
2018-10-03T19:36:22.769Z,14.70
2018-10-03T19:38:25.965Z,17.87
2018-10-03T19:40:29.492Z,7.33
2018-10-03T19:42:32.920Z,13.20
2018-10-03T19:44:36.103Z,5.53
2018-10-03T19:46:39.283Z,8.60
2018-10-03T19:48:42.517Z,8.13
2018-10-03T19:50:45.708Z,5.73
2018-10-03T19:52:48.885Z,6.33
2018-10-03T19:54:53.047Z,2.20
2018-10-03T19:56:56.239Z,3.93
2018-10-03T19:58:59.753Z,8.37
2018-10-03T20:01:02.981Z,5.90
2018-10-03T20:03:06.536Z,6.23
2018-10-03T20:05:10.132Z,7.53
2018-10-03T20:07:13.300Z,4.33
2018-10-03T20:09:16.491Z,2.43
2018-10-03T20:11:20.059Z,6.93
2018-10-03T20:13:23.383Z,11.97
2018-10-03T20:15:26.550Z,3.90
2018-10-03T20:17:29.813Z,11.93
2018-10-03T20:19:33.004Z,5.57
2018-10-03T20:21:36.206Z,9.97
2018-10-03T20:23:39.757Z,7.00
2018-10-03T20:25:43.004Z,6.43
2018-10-03T20:27:46.233Z,6.30
2018-10-03T20:29:49.465Z,7.13
2018-10-03T20:31:52.677Z,1.73
2018-10-03T20:33:55.844Z,8.57
2018-10-03T20:35:59.031Z,8.07
2018-10-03T20:38:02.405Z,10.27
2018-10-03T20:40:05.948Z,8.40
2018-10-03T20:42:09.233Z,5.70
2018-10-03T20:44:12.411Z,4.20
2018-10-03T20:46:16.341Z,9.03
2018-10-03T20:48:19.676Z,8.23
2018-10-03T20:50:23.040Z,5.20
2018-10-03T20:52:26.288Z,4.27
2018-10-03T20:54:29.791Z,5.10
2018-10-03T20:56:33.461Z,9.77
2018-10-03T20:58:36.644Z,6.83
2018-10-03T21:00:40.084Z,11.20
2018-10-03T21:02:43.346Z,14.50
2018-10-03T21:04:46.866Z,11.23
2018-10-03T21:06:50.070Z,5.97
2018-10-03T21:08:53.591Z,6.53
2018-10-03T21:10:56.780Z,5.67
2018-10-03T21:13:00.002Z,6.40
2018-10-03T21:15:03.188Z,18.43
2018-10-03T21:17:06.382Z,6.17
2018-10-03T21:19:10.206Z,2.13
2018-10-03T21:21:13.381Z,9.47
2018-10-03T21:23:16.665Z,4.37
2018-10-03T21:25:20.177Z,4.23
2018-10-03T21:27:23.397Z,2.73
2018-10-03T21:29:26.875Z,6.70
2018-10-03T21:31:30.352Z,1.07
2018-10-03T21:33:33.593Z,8.00
2018-10-03T21:35:36.784Z,7.83
2018-10-03T21:37:40.344Z,4.87
2018-10-03T21:39:43.558Z,20.77
2018-10-03T21:41:46.856Z,4.53
2018-10-03T21:43:50.165Z,9.50
2018-10-03T21:45:53.645Z,2.50
2018-10-03T21:47:56.857Z,4.97
2018-10-03T21:50:00.272Z,5.23
2018-10-03T21:52:03.541Z,6.37
2018-10-03T21:54:06.764Z,9.60
2018-10-03T21:56:09.944Z,5.10
2018-10-03T21:58:13.153Z,7.00
2018-10-03T22:00:16.332Z,9.03
2018-10-03T22:02:19.532Z,7.13
2018-10-03T22:04:22.708Z,5.73
2018-10-03T22:06:26.408Z,6.60
2018-10-03T22:08:29.896Z,7.95
2018-10-03T22:10:33.060Z,5.50
2018-10-03T22:12:37.281Z,13.20
2018-10-03T22:14:40.512Z,9.80
2018-10-03T22:16:43.684Z,5.03
2018-10-03T22:18:46.900Z,7.70
2018-10-03T22:20:50.095Z,13.07
2018-10-03T22:22:53.395Z,16.73
2018-10-03T22:24:56.800Z,7.47
2018-10-03T22:26:59.984Z,8.03
2018-10-03T22:29:03.516Z,12.07
2018-10-03T22:31:06.992Z,2.70
2018-10-03T22:33:10.361Z,4.40
2018-10-03T22:35:13.555Z,3.40
2018-10-03T22:37:16.969Z,8.90
2018-10-03T22:39:20.159Z,7.60
2018-10-03T22:41:23.325Z,13.23
2018-10-03T22:43:26.840Z,12.80
2018-10-03T22:45:30.037Z,5.93
2018-10-03T22:47:33.224Z,16.20
2018-10-03T22:49:36.429Z,22.20
2018-10-03T22:51:39.975Z,13.23
2018-10-03T22:53:43.153Z,3.27
2018-10-03T22:55:46.585Z,7.47
2018-10-03T22:57:49.949Z,7.03
2018-10-03T22:59:53.149Z,4.67
2018-10-03T23:01:56.736Z,14.63
2018-10-03T23:04:00.006Z,9.37
2018-10-03T23:06:03.495Z,9.40
2018-10-03T23:08:07.254Z,10.30
2018-10-03T23:10:10.493Z,9.17
2018-10-03T23:12:13.693Z,19.23
2018-10-03T23:14:16.882Z,12.50
2018-10-03T23:16:20.252Z,8.00
2018-10-03T23:18:23.444Z,19.13
2018-10-03T23:20:27.007Z,17.30
2018-10-03T23:22:30.384Z,8.60
2018-10-03T23:24:33.603Z,14.03
2018-10-03T23:26:37.565Z,15.63
2018-10-03T23:28:40.785Z,4.80
2018-10-03T23:30:43.948Z,5.80
2018-10-03T23:32:47.641Z,20.77
2018-10-03T23:34:50.808Z,9.63
2018-10-03T23:36:54.328Z,3.83
2018-10-03T23:38:57.531Z,12.17
2018-10-03T23:41:00.700Z,8.77
2018-10-03T23:43:04.202Z,12.40
2018-10-03T23:45:07.592Z,15.40
2018-10-03T23:47:10.776Z,7.33
2018-10-03T23:49:13.942Z,11.20
2018-10-03T23:51:17.465Z,1.43
2018-10-03T23:53:20.641Z,8.10
2018-10-03T23:55:24.100Z,12.57
2018-10-03T23:57:27.416Z,4.03
2018-10-03T23:59:30.798Z,6.60
